Time;durP1;ratioP1;P1;durP2;ratioP2;P2;SDS_P1;SDS_P2;PMS_P1;PMS_P2;Temp;Humidity;BMP_temperature;BMP_pressure;BME280_temperature;BME280_humidity;BME280_pressure;Samples;Min_cycle;Max_cycle;Signal;HPM_P1;HPM_P2
2022/05/17 00:02:34;;;;;;;7.38;3.00;;;;;;;;;;6222865;28;20046;-67
2022/05/17 00:05:36;;;;;;;6.63;2.55;;;;;;;;;;6227466;28;20068;-66
2022/05/17 00:08:38;;;;;;;11.23;3.00;;;;;;;;;;6224723;28;20060;-68
2022/05/17 00:11:39;;;;;;;6.60;2.83;;;;;;;;;;6221785;28;20133;-67
2022/05/17 00:14:42;;;;;;;8.18;2.50;;;;;;;;;;6219565;28;20080;-66
2022/05/17 00:17:44;;;;;;;6.93;2.95;;;;;;;;;;6223312;28;20272;-67
2022/05/17 00:20:46;;;;;;;7.20;2.72;;;;;;;;;;6221329;28;20427;-68
2022/05/17 00:23:48;;;;;;;7.60;3.00;;;;;;;;;;6223353;28;20054;-67
2022/05/17 00:26:50;;;;;;;6.93;2.78;;;;;;;;;;6223731;28;20670;-67
2022/05/17 00:29:53;;;;;;;7.38;3.30;;;;;;;;;;6222795;28;20221;-68
2022/05/17 00:32:54;;;;;;;15.10;3.25;;;;;;;;;;6225856;28;20281;-67
2022/05/17 00:35:56;;;;;;;10.48;3.35;;;;;;;;;;6226585;28;20359;-67
2022/05/17 00:38:57;;;;;;;9.15;3.20;;;;;;;;;;6222331;28;20278;-66
2022/05/17 00:41:59;;;;;;;7.55;3.17;;;;;;;;;;6222650;28;20057;-66
2022/05/17 00:45:03;;;;;;;11.68;2.85;;;;;;;;;;6229561;28;20050;-67
2022/05/17 00:48:05;;;;;;;;;;;;;;;;;;6223685;28;20053;-66
2022/05/17 00:51:07;;;;;;;4.70;2.38;;;;;;;;;;6221573;28;19929;-66
2022/05/17 00:54:10;;;;;;;5.10;2.42;;;;;;;;;;6223235;28;20352;-67
2022/05/17 00:57:19;;;;;;;5.18;2.55;;;;;;;;;;6222645;28;20053;-67
2022/05/17 01:00:24;;;;;;;5.78;2.50;;;;;;;;;;6223752;28;20129;-67
2022/05/17 01:03:26;;;;;;;4.32;2.78;;;;;;;;;;6222564;28;20062;-69
2022/05/17 01:06:31;;;;;;;5.05;2.72;;;;;;;;;;6223969;28;20050;-69
2022/05/17 01:09:33;;;;;;;6.40;3.00;;;;;;;;;;6218875;28;20325;-69
2022/05/17 01:12:35;;;;;;;6.32;2.95;;;;;;;;;;6217671;28;20058;-69
2022/05/17 01:15:37;;;;;;;6.65;3.22;;;;;;;;;;6218696;28;20050;-69
2022/05/17 01:18:41;;;;;;;7.25;3.40;;;;;;;;;;6218972;28;20088;-69
2022/05/17 01:21:44;;;;;;;5.00;3.33;;;;;;;;;;6223097;28;20058;-68
2022/05/17 01:24:46;;;;;;;;;;;;;;;;;;6221607;28;20065;-69
2022/05/17 01:27:53;;;;;;;8.43;3.38;;;;;;;;;;6222742;28;20144;-71
2022/05/17 01:31:02;;;;;;;5.13;3.17;;;;;;;;;;6223897;28;20065;-69
2022/05/17 01:34:05;;;;;;;5.90;3.28;;;;;;;;;;6221398;28;20737;-68
2022/05/17 01:37:09;;;;;;;6.22;3.55;;;;;;;;;;6220414;28;20042;-67
2022/05/17 01:40:12;;;;;;;7.18;3.55;;;;;;;;;;6224017;28;20336;-66
2022/05/17 01:43:14;;;;;;;5.23;3.40;;;;;;;;;;6221425;28;20217;-66
2022/05/17 01:46:15;;;;;;;5.10;3.70;;;;;;;;;;6220178;28;20092;-67
2022/05/17 01:49:17;;;;;;;9.10;3.95;;;;;;;;;;6219075;28;20054;-66
2022/05/17 01:52:20;;;;;;;5.38;4.07;;;;;;;;;;6214633;28;20046;-65
2022/05/17 01:55:21;;;;;;;7.15;4.38;;;;;;;;;;6221495;28;20058;-66
2022/05/17 01:58:23;;;;;;;5.47;4.35;;;;;;;;;;6221781;28;21161;-66
2022/05/17 02:01:25;;;;;;;8.68;4.32;;;;;;;;;;6222662;28;20398;-67
2022/05/17 02:04:26;;;;;;;7.70;5.00;;;;;;;;;;6217896;28;20054;-67
2022/05/17 02:07:29;;;;;;;8.48;5.43;;;;;;;;;;6225337;28;20054;-65
2022/05/17 02:10:31;;;;;;;6.18;4.53;;;;;;;;;;6219648;28;20054;-66
2022/05/17 02:13:33;;;;;;;8.35;4.60;;;;;;;;;;6220186;28;20068;-65
2022/05/17 02:16:36;;;;;;;9.73;5.13;;;;;;;;;;6220662;28;20056;-67
2022/05/17 02:19:37;;;;;;;11.77;5.25;;;;;;;;;;6219195;28;20256;-67
2022/05/17 02:22:41;;;;;;;7.70;5.13;;;;;;;;;;6219822;28;20057;-66
2022/05/17 02:25:42;;;;;;;12.75;6.05;;;;;;;;;;6221532;28;20065;-68
2022/05/17 02:28:44;;;;;;;13.88;5.47;;;;;;;;;;6217071;28;20069;-67
2022/05/17 02:31:46;;;;;;;7.78;5.35;;;;;;;;;;6219457;28;20050;-66
2022/05/17 02:34:47;;;;;;;9.50;5.30;;;;;;;;;;6217793;28;20065;-66
2022/05/17 02:37:50;;;;;;;15.68;6.43;;;;;;;;;;6216768;28;20065;-67
2022/05/17 02:40:52;;;;;;;10.57;5.90;;;;;;;;;;6218257;28;20318;-66
2022/05/17 02:43:54;;;;;;;7.03;5.03;;;;;;;;;;6217410;28;20116;-66
2022/05/17 02:46:56;;;;;;;13.27;5.78;;;;;;;;;;6211400;28;20113;-67
2022/05/17 02:49:58;;;;;;;10.90;5.75;;;;;;;;;;6215162;28;20061;-67
2022/05/17 02:53:01;;;;;;;11.18;5.30;;;;;;;;;;6220216;28;20046;-67
2022/05/17 02:56:03;;;;;;;11.00;5.97;;;;;;;;;;6224226;28;20046;-73
2022/05/17 02:59:05;;;;;;;7.95;5.47;;;;;;;;;;6222305;28;20104;-67
2022/05/17 03:02:07;;;;;;;8.45;5.85;;;;;;;;;;6218598;28;20268;-67
2022/05/17 03:05:09;;;;;;;12.02;6.40;;;;;;;;;;6221103;28;20333;-66
2022/05/17 03:08:12;;;;;;;8.93;5.80;;;;;;;;;;6230748;28;20073;-67
2022/05/17 03:11:14;;;;;;;12.95;6.10;;;;;;;;;;6224661;28;20064;-66
2022/05/17 03:14:18;;;;;;;11.63;5.72;;;;;;;;;;6232000;28;20281;-66
2022/05/17 03:17:19;;;;;;;10.00;6.55;;;;;;;;;;6228856;28;20085;-66
2022/05/17 03:20:21;;;;;;;10.05;6.88;;;;;;;;;;6224644;28;20057;-67
2022/05/17 03:23:24;;;;;;;8.10;5.93;;;;;;;;;;6230097;28;20103;-66
2022/05/17 03:26:26;;;;;;;10.93;6.50;;;;;;;;;;6229478;28;20053;-66
2022/05/17 03:29:28;;;;;;;9.93;7.07;;;;;;;;;;6227718;28;20079;-66
2022/05/17 03:32:29;;;;;;;10.95;7.05;;;;;;;;;;6227204;28;20340;-66
2022/05/17 03:35:31;;;;;;;11.55;6.65;;;;;;;;;;6231158;28;20139;-67
2022/05/17 03:38:34;;;;;;;9.75;6.03;;;;;;;;;;6229401;28;20046;-67
2022/05/17 03:41:36;;;;;;;11.65;6.85;;;;;;;;;;6230766;28;20050;-67
2022/05/17 03:44:38;;;;;;;11.32;6.88;;;;;;;;;;6231732;28;20065;-66
2022/05/17 03:47:40;;;;;;;16.25;7.55;;;;;;;;;;6231243;28;20049;-67
2022/05/17 03:50:42;;;;;;;13.50;7.68;;;;;;;;;;6230300;28;20594;-66
2022/05/17 03:53:45;;;;;;;10.77;7.35;;;;;;;;;;6228200;28;20108;-67
2022/05/17 03:56:47;;;;;;;9.73;7.20;;;;;;;;;;6226508;28;20340;-67
2022/05/17 03:59:49;;;;;;;11.02;7.32;;;;;;;;;;6223365;28;20045;-67
2022/05/17 04:02:51;;;;;;;13.63;7.18;;;;;;;;;;6222968;28;20050;-67
2022/05/17 04:05:55;;;;;;;11.55;7.85;;;;;;;;;;6227962;28;20053;-67
2022/05/17 04:08:58;;;;;;;8.95;6.93;;;;;;;;;;6222202;28;20084;-67
2022/05/17 04:12:00;;;;;;;8.88;7.30;;;;;;;;;;6228183;28;20073;-68
2022/05/17 04:15:02;;;;;;;14.80;6.97;;;;;;;;;;6225264;28;20046;-66
2022/05/17 04:18:03;;;;;;;10.57;6.78;;;;;;;;;;6226294;28;20122;-67
2022/05/17 04:21:06;;;;;;;10.38;6.95;;;;;;;;;;6227566;28;20117;-67
2022/05/17 04:24:09;;;;;;;11.27;6.33;;;;;;;;;;6225426;28;20117;-67
2022/05/17 04:27:12;;;;;;;9.18;6.70;;;;;;;;;;6222025;28;20373;-67
2022/05/17 04:30:14;;;;;;;8.52;6.20;;;;;;;;;;6224932;28;20046;-67
2022/05/17 04:33:15;;;;;;;9.73;6.40;;;;;;;;;;6225748;28;20112;-67
2022/05/17 04:36:17;;;;;;;11.43;6.68;;;;;;;;;;6223651;28;20268;-67
2022/05/17 04:39:20;;;;;;;12.25;6.20;;;;;;;;;;6226503;28;20191;-66
2022/05/17 04:42:22;;;;;;;10.13;6.28;;;;;;;;;;6224890;28;20077;-67
2022/05/17 04:45:25;;;;;;;13.50;6.55;;;;;;;;;;6223440;28;20383;-67
2022/05/17 04:48:27;;;;;;;10.98;6.05;;;;;;;;;;6223872;28;20112;-67
2022/05/17 04:51:28;;;;;;;12.85;6.20;;;;;;;;;;6224859;28;20046;-67
2022/05/17 04:54:31;;;;;;;11.25;6.05;;;;;;;;;;6221551;28;20077;-67
2022/05/17 04:57:35;;;;;;;9.20;6.05;;;;;;;;;;6224142;28;20061;-67
2022/05/17 05:00:36;;;;;;;8.82;5.72;;;;;;;;;;6221608;28;20084;-67
2022/05/17 05:03:38;;;;;;;10.70;5.82;;;;;;;;;;6225166;28;20643;-68
2022/05/17 05:06:39;;;;;;;9.50;5.82;;;;;;;;;;6226506;28;20058;-66
2022/05/17 05:09:42;;;;;;;8.82;6.07;;;;;;;;;;6225093;28;20057;-64
2022/05/17 05:12:44;;;;;;;11.93;7.05;;;;;;;;;;6223610;28;20236;-66
2022/05/17 05:15:46;;;;;;;11.90;6.40;;;;;;;;;;6229327;28;20058;-67
2022/05/17 05:18:47;;;;;;;10.00;6.10;;;;;;;;;;6223976;28;20038;-67
2022/05/17 05:21:49;;;;;;;9.15;6.03;;;;;;;;;;6220075;28;20069;-66
2022/05/17 05:24:52;;;;;;;8.32;6.10;;;;;;;;;;6221290;28;20153;-67
2022/05/17 05:27:54;;;;;;;14.13;7.00;;;;;;;;;;6223970;28;20483;-66
2022/05/17 05:30:56;;;;;;;11.40;6.53;;;;;;;;;;6226952;28;20059;-66
2022/05/17 05:34:00;;;;;;;13.32;7.40;;;;;;;;;;6223194;28;20105;-67
2022/05/17 05:37:02;;;;;;;9.43;7.13;;;;;;;;;;6224339;28;20046;-66
2022/05/17 05:40:06;;;;;;;14.60;8.07;;;;;;;;;;6219812;28;20053;-66
2022/05/17 05:43:08;;;;;;;12.57;8.13;;;;;;;;;;6224525;28;20058;-66
2022/05/17 05:46:09;;;;;;;16.67;8.63;;;;;;;;;;6221524;28;20089;-65
2022/05/17 05:49:11;;;;;;;12.45;7.70;;;;;;;;;;6222779;28;20054;-66
2022/05/17 05:52:13;;;;;;;11.18;7.95;;;;;;;;;;6218371;28;20084;-65
2022/05/17 05:55:20;;;;;;;14.10;7.90;;;;;;;;;;6220045;28;20069;-66
2022/05/17 05:58:22;;;;;;;12.20;8.07;;;;;;;;;;6219314;28;20104;-66
2022/05/17 06:01:23;;;;;;;15.57;8.48;;;;;;;;;;6219389;28;20060;-67
2022/05/17 06:04:27;;;;;;;10.55;7.60;;;;;;;;;;6221184;28;20057;-66
2022/05/17 06:07:29;;;;;;;;;;;;;;;;;;6222109;28;20053;-66
2022/05/17 06:10:32;;;;;;;12.82;8.05;;;;;;;;;;6223380;28;20961;-66
2022/05/17 06:13:34;;;;;;;12.18;8.38;;;;;;;;;;6220018;28;20057;-66
2022/05/17 06:16:36;;;;;;;14.43;7.95;;;;;;;;;;6218904;28;20180;-68
2022/05/17 06:19:37;;;;;;;15.27;8.27;;;;;;;;;;6217137;28;20066;-68
2022/05/17 06:22:39;;;;;;;14.68;7.78;;;;;;;;;;6217260;28;20061;-67
2022/05/17 06:25:42;;;;;;;17.52;9.90;;;;;;;;;;6220639;28;20206;-67
2022/05/17 06:28:44;;;;;;;12.18;9.23;;;;;;;;;;6219232;28;20062;-67
2022/05/17 06:31:46;;;;;;;13.00;7.88;;;;;;;;;;6217499;28;20341;-67
2022/05/17 06:34:47;;;;;;;12.02;8.27;;;;;;;;;;6218219;28;20069;-67
2022/05/17 06:37:49;;;;;;;13.00;8.40;;;;;;;;;;6217964;28;20100;-67
2022/05/17 06:40:52;;;;;;;20.05;8.20;;;;;;;;;;6219210;28;20237;-68
2022/05/17 06:43:53;;;;;;;13.32;8.07;;;;;;;;;;6219773;28;20050;-68
2022/05/17 06:46:56;;;;;;;12.95;7.05;;;;;;;;;;6222278;28;20053;-67
2022/05/17 06:49:57;;;;;;;10.90;7.05;;;;;;;;;;6220743;28;20046;-66
2022/05/17 06:52:59;;;;;;;10.75;6.85;;;;;;;;;;6221731;28;20057;-68
2022/05/17 06:56:05;;;;;;;11.88;6.63;;;;;;;;;;6225416;28;20159;-67
2022/05/17 06:59:08;;;;;;;9.23;6.45;;;;;;;;;;6222106;28;20045;-67
2022/05/17 07:02:10;;;;;;;11.68;6.85;;;;;;;;;;6218768;28;20340;-66
2022/05/17 07:05:12;;;;;;;10.00;6.87;;;;;;;;;;6221497;28;20324;-67
2022/05/17 07:08:14;;;;;;;13.68;7.38;;;;;;;;;;6220247;28;20606;-68
2022/05/17 07:14:51;;;;;;;11.77;6.30;;;;;;;;;;6167690;28;20167;-67
2022/05/17 07:17:52;;;;;;;12.35;6.70;;;;;;;;;;6172373;28;20245;-67
2022/05/17 07:20:54;;;;;;;12.13;5.80;;;;;;;;;;6167220;28;20212;-67
2022/05/17 07:23:56;;;;;;;13.32;6.38;;;;;;;;;;6168094;28;20333;-66
2022/05/17 07:26:59;;;;;;;11.43;5.45;;;;;;;;;;6167694;28;20050;-68
2022/05/17 07:30:01;;;;;;;8.82;5.70;;;;;;;;;;6165106;28;20066;-67
2022/05/17 07:33:04;;;;;;;11.85;5.57;;;;;;;;;;6170992;28;20254;-68
2022/05/17 07:36:07;;;;;;;9.40;5.30;;;;;;;;;;6169906;28;20065;-67
2022/05/17 07:39:09;;;;;;;7.30;5.35;;;;;;;;;;6168281;28;20055;-67
2022/05/17 07:42:12;;;;;;;8.27;5.10;;;;;;;;;;6172757;28;20050;-67
2022/05/17 07:45:15;;;;;;;6.82;4.45;;;;;;;;;;6193019;28;20343;-68
2022/05/17 07:48:17;;;;;;;10.10;5.90;;;;;;;;;;6224432;28;20053;-68
2022/05/17 07:51:18;;;;;;;9.48;5.68;;;;;;;;;;6224330;28;20328;-66
2022/05/17 07:54:20;;;;;;;13.98;5.72;;;;;;;;;;6222150;28;20349;-68
2022/05/17 07:57:23;;;;;;;7.05;5.15;;;;;;;;;;6222989;28;20054;-67
2022/05/17 08:00:25;;;;;;;8.75;5.75;;;;;;;;;;6223808;28;20329;-67
2022/05/17 08:03:26;;;;;;;6.95;5.30;;;;;;;;;;6223490;28;20049;-67
2022/05/17 08:06:28;;;;;;;14.02;5.63;;;;;;;;;;6224029;28;20054;-68
2022/05/17 08:09:29;;;;;;;9.43;5.38;;;;;;;;;;6222345;28;20060;-68
2022/05/17 08:12:33;;;;;;;10.32;5.75;;;;;;;;;;6223741;28;20054;-67
2022/05/17 08:15:34;;;;;;;;;;;;;;;;;;6224489;28;20057;-67
2022/05/17 08:18:36;;;;;;;10.02;5.80;;;;;;;;;;6222637;28;19980;-68
2022/05/17 08:21:38;;;;;;;10.75;5.55;;;;;;;;;;6220965;28;20058;-67
2022/05/17 08:28:01;;;;;;;11.20;6.28;;;;;;;;;;6223495;28;20050;-68
2022/05/17 08:31:04;;;;;;;9.13;5.32;;;;;;;;;;6222685;28;20053;-67
2022/05/17 08:34:08;;;;;;;14.07;6.30;;;;;;;;;;6223180;28;20342;-68
2022/05/17 08:37:09;;;;;;;9.23;5.45;;;;;;;;;;6224995;28;20068;-68
2022/05/17 08:40:15;;;;;;;11.75;5.72;;;;;;;;;;6226064;28;20147;-68
2022/05/17 08:43:24;;;;;;;10.57;5.63;;;;;;;;;;6226694;28;20053;-69
2022/05/17 08:46:32;;;;;;;9.95;5.78;;;;;;;;;;6225601;28;20080;-67
2022/05/17 08:49:39;;;;;;;9.32;5.45;;;;;;;;;;6222992;28;20329;-67
2022/05/17 08:52:42;;;;;;;8.88;5.65;;;;;;;;;;6223496;28;20054;-68
2022/05/17 08:55:44;;;;;;;10.20;6.22;;;;;;;;;;6223432;28;20787;-68
2022/05/17 08:58:48;;;;;;;;;;;;;;;;;;6223021;28;20053;-68
2022/05/17 09:01:54;;;;;;;13.27;5.70;;;;;;;;;;6218762;28;19930;-68
2022/05/17 09:05:10;;;;;;;10.45;7.22;;;;;;;;;;6221144;28;20057;-68
2022/05/17 09:08:16;;;;;;;11.27;6.72;;;;;;;;;;6223290;28;20042;-68
2022/05/17 09:11:22;;;;;;;10.10;8.30;;;;;;;;;;6221978;28;20057;-68
2022/05/17 09:14:27;;;;;;;13.07;7.47;;;;;;;;;;6222628;28;20057;-67
2022/05/17 09:17:29;;;;;;;16.25;7.45;;;;;;;;;;6226548;28;20054;-68
2022/05/17 09:20:34;;;;;;;11.98;6.30;;;;;;;;;;6222855;28;20050;-67
2022/05/17 09:23:36;;;;;;;14.88;6.90;;;;;;;;;;6224533;28;20054;-69
2022/05/17 09:26:38;;;;;;;11.40;6.63;;;;;;;;;;6222391;28;20046;-68
2022/05/17 09:29:43;;;;;;;11.35;6.25;;;;;;;;;;6229004;28;20484;-68
2022/05/17 09:32:46;;;;;;;10.18;6.63;;;;;;;;;;6223774;28;20042;-71
2022/05/17 09:35:57;;;;;;;13.82;7.72;;;;;;;;;;6226399;28;20359;-71
2022/05/17 09:39:00;;;;;;;13.52;7.13;;;;;;;;;;6225635;28;20153;-71
2022/05/17 09:42:03;;;;;;;19.02;12.90;;;;;;;;;;6221128;28;20049;-70
2022/05/17 09:45:14;;;;;;;14.23;9.30;;;;;;;;;;6228374;28;20050;-69
2022/05/17 09:48:28;;;;;;;11.50;7.35;;;;;;;;;;6225024;28;20096;-69
2022/05/17 09:54:53;;;;;;;16.08;8.23;;;;;;;;;;6224341;28;20050;-71
2022/05/17 09:57:58;;;;;;;12.20;8.10;;;;;;;;;;6226387;28;20328;-70
2022/05/17 10:01:08;;;;;;;10.10;6.20;;;;;;;;;;6221435;28;20335;-71
2022/05/17 10:04:11;;;;;;;16.85;8.32;;;;;;;;;;6220610;28;20072;-70
2022/05/17 10:07:16;;;;;;;17.55;8.93;;;;;;;;;;6221739;28;20096;-69
2022/05/17 10:10:30;;;;;;;13.75;8.35;;;;;;;;;;6223583;28;20336;-70
2022/05/17 10:13:34;;;;;;;9.30;6.80;;;;;;;;;;6223385;28;20078;-70
2022/05/17 10:16:45;;;;;;;11.98;6.28;;;;;;;;;;6223853;28;20054;-70
2022/05/17 10:19:50;;;;;;;11.98;6.05;;;;;;;;;;6228282;28;20056;-71
2022/05/17 10:22:58;;;;;;;13.05;5.80;;;;;;;;;;6217802;28;20060;-70
2022/05/17 10:26:03;;;;;;;8.75;5.13;;;;;;;;;;6213162;28;20144;-70
2022/05/17 10:29:09;;;;;;;7.20;4.82;;;;;;;;;;6214656;28;20041;-71
2022/05/17 10:32:19;;;;;;;10.68;5.72;;;;;;;;;;6215989;28;20169;-70
2022/05/17 10:35:29;;;;;;;8.98;5.03;;;;;;;;;;6209250;28;20054;-70
2022/05/17 10:38:35;;;;;;;9.30;3.65;;;;;;;;;;6219465;28;20099;-70
2022/05/17 10:41:37;;;;;;;6.30;4.50;;;;;;;;;;6217033;28;20046;-70
2022/05/17 10:44:42;;;;;;;6.03;3.53;;;;;;;;;;6221498;28;20133;-70
2022/05/17 10:47:53;;;;;;;9.65;3.30;;;;;;;;;;6218229;28;20054;-70
2022/05/17 10:51:00;;;;;;;6.57;3.63;;;;;;;;;;6217789;28;20614;-70
2022/05/17 10:54:08;;;;;;;6.40;3.38;;;;;;;;;;6221782;28;20053;-70
2022/05/17 10:57:15;;;;;;;12.32;3.63;;;;;;;;;;6216105;28;20042;-70
2022/05/17 11:00:22;;;;;;;6.22;4.10;;;;;;;;;;6227442;28;20070;-71
2022/05/17 11:03:44;;;;;;;5.30;3.80;;;;;;;;;;6215001;28;20089;-70
2022/05/17 11:06:55;;;;;;;9.10;4.85;;;;;;;;;;6201361;28;20115;-71
2022/05/17 11:10:04;;;;;;;10.45;5.00;;;;;;;;;;6219710;28;20054;-70
2022/05/17 11:13:11;;;;;;;10.88;5.93;;;;;;;;;;6221624;28;20068;-70
2022/05/17 11:16:16;;;;;;;7.35;5.28;;;;;;;;;;6223712;28;20050;-70
2022/05/17 11:19:27;;;;;;;9.45;5.20;;;;;;;;;;6230353;28;20088;-70
2022/05/17 11:22:35;;;;;;;6.00;4.70;;;;;;;;;;6227334;28;20111;-71
2022/05/17 11:25:56;;;;;;;7.95;5.18;;;;;;;;;;6226340;28;20056;-68
2022/05/17 11:29:10;;;;;;;9.95;4.20;;;;;;;;;;6221383;28;20050;-70
2022/05/17 11:32:25;;;;;;;8.18;4.43;;;;;;;;;;6222260;28;20061;-70
2022/05/17 11:35:50;;;;;;;6.45;4.20;;;;;;;;;;6222237;28;20058;-68
2022/05/17 11:38:54;;;;;;;7.50;4.07;;;;;;;;;;6225828;28;20053;-68
2022/05/17 11:42:05;;;;;;;6.28;3.50;;;;;;;;;;6225151;28;20108;-68
2022/05/17 11:45:20;;;;;;;;;;;;;;;;;;6228511;28;20046;-69
2022/05/17 11:48:24;;;;;;;4.65;3.50;;;;;;;;;;6222535;28;20226;-69
2022/05/17 11:51:32;;;;;;;6.75;4.22;;;;;;;;;;6225170;28;20115;-68
2022/05/17 11:54:42;;;;;;;6.72;3.47;;;;;;;;;;6221844;28;20053;-69
2022/05/17 11:58:08;;;;;;;7.03;3.78;;;;;;;;;;6219098;28;20125;-68
2022/05/17 12:01:44;;;;;;;6.93;3.60;;;;;;;;;;6224272;28;20088;-68
2022/05/17 12:04:47;;;;;;;6.38;3.45;;;;;;;;;;6219023;28;20650;-67
2022/05/17 12:07:50;;;;;;;3.80;3.08;;;;;;;;;;6219699;28;20329;-68
2022/05/17 12:10:57;;;;;;;5.40;3.30;;;;;;;;;;6226886;28;20212;-68
2022/05/17 12:14:08;;;;;;;4.05;2.92;;;;;;;;;;6225701;28;20067;-67
2022/05/17 12:17:14;;;;;;;8.00;3.00;;;;;;;;;;6224364;28;20041;-68
2022/05/17 12:20:18;;;;;;;5.00;2.60;;;;;;;;;;6223891;28;20045;-67
2022/05/17 12:23:24;;;;;;;5.88;3.05;;;;;;;;;;6223273;28;20062;-69
2022/05/17 12:26:35;;;;;;;6.00;2.72;;;;;;;;;;6224140;28;20058;-69
2022/05/17 12:33:03;;;;;;;6.80;3.00;;;;;;;;;;6223912;28;20053;-68
2022/05/17 12:36:14;;;;;;;5.38;3.13;;;;;;;;;;6223695;28;20054;-67
2022/05/17 12:46:08;;;;;;;8.10;3.22;;;;;;;;;;6221612;28;20088;-69
2022/05/17 12:49:15;;;;;;;4.85;3.10;;;;;;;;;;6224536;28;20245;-67
2022/05/17 12:52:19;;;;;;;6.97;3.50;;;;;;;;;;6218663;28;20054;-67
2022/05/17 12:55:24;;;;;;;8.45;3.38;;;;;;;;;;6225542;28;20069;-67
2022/05/17 12:58:26;;;;;;;5.95;2.75;;;;;;;;;;6224442;28;20061;-68
2022/05/17 13:01:30;;;;;;;6.57;3.20;;;;;;;;;;6220918;28;20099;-67
2022/05/17 13:04:36;;;;;;;5.68;3.00;;;;;;;;;;6222961;28;20104;-67
2022/05/17 13:07:38;;;;;;;4.40;3.50;;;;;;;;;;6219559;28;20061;-67
2022/05/17 13:10:44;;;;;;;7.93;3.13;;;;;;;;;;6222214;28;20116;-68
2022/05/17 13:13:46;;;;;;;8.23;3.55;;;;;;;;;;6220779;28;20089;-67
2022/05/17 13:16:49;;;;;;;6.43;2.58;;;;;;;;;;6219039;28;20065;-68
2022/05/17 13:19:51;;;;;;;4.45;2.75;;;;;;;;;;6221404;28;20093;-67
2022/05/17 13:22:54;;;;;;;2.97;2.38;;;;;;;;;;6226482;28;20069;-67
2022/05/17 13:26:01;;;;;;;4.18;3.30;;;;;;;;;;6218746;28;20050;-67
2022/05/17 13:29:14;;;;;;;4.38;2.85;;;;;;;;;;6221946;28;20054;-67
2022/05/17 13:32:20;;;;;;;6.55;2.80;;;;;;;;;;6223443;28;20046;-68
2022/05/17 13:35:24;;;;;;;6.00;2.80;;;;;;;;;;6220861;28;20077;-66
2022/05/17 13:38:26;;;;;;;5.63;3.00;;;;;;;;;;6220513;28;20058;-68
2022/05/17 13:41:37;;;;;;;8.13;2.70;;;;;;;;;;6223640;28;20292;-68
2022/05/17 13:44:40;;;;;;;5.45;2.60;;;;;;;;;;6221647;28;20092;-67
2022/05/17 13:47:46;;;;;;;4.55;2.67;;;;;;;;;;6219638;28;20054;-68
2022/05/17 13:50:53;;;;;;;5.65;2.60;;;;;;;;;;6224997;28;20269;-67
2022/05/17 13:53:59;;;;;;;5.40;2.60;;;;;;;;;;6222215;28;20141;-67
2022/05/17 13:57:07;;;;;;;4.32;2.50;;;;;;;;;;6223792;28;20360;-67
2022/05/17 14:00:19;;;;;;;5.45;2.80;;;;;;;;;;6221662;28;20053;-68
2022/05/17 14:03:23;;;;;;;5.30;3.00;;;;;;;;;;6220876;28;20050;-69
2022/05/17 14:06:24;;;;;;;4.65;3.03;;;;;;;;;;6222427;28;20212;-68
2022/05/17 14:13:04;;;;;;;4.37;2.33;;;;;;;;;;6225469;28;20045;-67
2022/05/17 14:16:11;;;;;;;4.78;2.83;;;;;;;;;;6219549;28;20046;-69
2022/05/17 14:19:16;;;;;;;4.53;2.40;;;;;;;;;;6219729;28;20156;-69
2022/05/17 14:22:18;;;;;;;6.90;2.60;;;;;;;;;;6222873;28;20046;-68
2022/05/17 14:25:20;;;;;;;5.85;2.50;;;;;;;;;;6222494;28;20158;-68
2022/05/17 14:28:23;;;;;;;5.55;2.47;;;;;;;;;;6219211;28;20060;-69
2022/05/17 14:31:27;;;;;;;4.63;2.70;;;;;;;;;;6217719;28;20101;-69
2022/05/17 14:34:29;;;;;;;5.13;2.22;;;;;;;;;;6221511;28;20312;-68
2022/05/17 14:37:31;;;;;;;4.80;2.65;;;;;;;;;;6219723;28;20054;-69
2022/05/17 14:40:32;;;;;;;5.43;3.00;;;;;;;;;;6220136;28;20053;-68
2022/05/17 14:43:35;;;;;;;6.03;2.50;;;;;;;;;;6220090;28;20053;-69
2022/05/17 14:46:38;;;;;;;27.45;3.63;;;;;;;;;;6218623;28;20337;-69
2022/05/17 14:49:43;;;;;;;5.45;2.30;;;;;;;;;;6225028;28;20053;-69
2022/05/17 14:52:45;;;;;;;10.88;2.40;;;;;;;;;;6223096;28;20280;-68
2022/05/17 14:55:46;;;;;;;41.95;3.72;;;;;;;;;;6229032;28;20049;-68
2022/05/17 14:58:49;;;;;;;49.03;5.15;;;;;;;;;;6223652;28;20294;-68
2022/05/17 15:01:53;;;;;;;6.05;2.47;;;;;;;;;;6223494;28;20066;-69
2022/05/17 15:04:54;;;;;;;3.58;2.13;;;;;;;;;;6229449;28;20269;-69
2022/05/17 15:07:56;;;;;;;9.82;2.90;;;;;;;;;;6226013;28;20112;-68
2022/05/17 15:10:58;;;;;;;6.80;2.75;;;;;;;;;;6224727;28;20137;-69
2022/05/17 15:14:01;;;;;;;10.55;2.85;;;;;;;;;;6222582;28;20061;-69
2022/05/17 15:17:03;;;;;;;6.28;2.38;;;;;;;;;;6230249;28;20054;-68
2022/05/17 15:20:09;;;;;;;3.92;2.42;;;;;;;;;;6222328;28;20054;-68
2022/05/17 15:23:11;;;;;;;4.00;2.30;;;;;;;;;;6223547;28;20133;-68
2022/05/17 15:26:13;;;;;;;;;;;;;;;;;;6221772;28;20356;-67
2022/05/17 15:29:16;;;;;;;3.25;2.33;;;;;;;;;;6224758;28;19917;-68
2022/05/17 15:32:17;;;;;;;3.55;2.20;;;;;;;;;;6223575;28;20101;-68
2022/05/17 15:35:22;;;;;;;5.28;2.20;;;;;;;;;;6220120;28;20079;-68
2022/05/17 15:38:26;;;;;;;8.43;2.65;;;;;;;;;;6225744;28;20050;-67
2022/05/17 15:41:28;;;;;;;4.65;2.28;;;;;;;;;;6226035;28;20050;-68
2022/05/17 15:44:31;;;;;;;4.78;2.08;;;;;;;;;;6229924;28;20053;-68
2022/05/17 15:54:11;;;;;;;7.78;2.50;;;;;;;;;;6225759;28;20054;-67
2022/05/17 15:57:15;;;;;;;4.63;2.17;;;;;;;;;;6226379;28;20229;-68
2022/05/17 16:00:18;;;;;;;9.10;3.45;;;;;;;;;;6218339;28;20110;-67
2022/05/17 16:03:24;;;;;;;15.20;10.93;;;;;;;;;;6221842;28;20054;-67
2022/05/17 16:06:25;;;;;;;20.38;13.98;;;;;;;;;;6221080;28;20050;-67
2022/05/17 16:09:27;;;;;;;6.87;2.47;;;;;;;;;;6220613;28;20058;-67
2022/05/17 16:12:29;;;;;;;6.50;2.47;;;;;;;;;;6230964;28;20344;-68
2022/05/17 16:15:33;;;;;;;5.45;2.40;;;;;;;;;;6226280;28;20468;-67
2022/05/17 16:18:43;;;;;;;3.83;2.22;;;;;;;;;;6226956;28;20060;-67
2022/05/17 16:21:46;;;;;;;3.65;2.28;;;;;;;;;;6228258;28;20045;-67
2022/05/17 16:24:47;;;;;;;5.28;2.70;;;;;;;;;;6220624;28;20053;-67
2022/05/17 16:27:51;;;;;;;4.93;2.47;;;;;;;;;;6222205;28;20050;-68
2022/05/17 16:30:54;;;;;;;3.55;2.15;;;;;;;;;;6218701;28;20042;-67
2022/05/17 16:33:56;;;;;;;8.95;2.10;;;;;;;;;;6220770;28;20121;-68
2022/05/17 16:36:59;;;;;;;3.88;2.10;;;;;;;;;;6218402;28;20049;-68
2022/05/17 16:40:00;;;;;;;5.95;2.63;;;;;;;;;;6222982;28;20058;-66
2022/05/17 16:43:02;;;;;;;3.50;2.40;;;;;;;;;;6221750;28;20060;-67
2022/05/17 16:46:05;;;;;;;3.80;2.37;;;;;;;;;;6220004;28;20058;-67
2022/05/17 16:49:09;;;;;;;11.30;2.80;;;;;;;;;;6224502;28;20041;-67
2022/05/17 16:52:11;;;;;;;11.27;3.15;;;;;;;;;;6222766;28;20055;-68
2022/05/17 16:55:13;;;;;;;3.58;2.30;;;;;;;;;;6224949;28;20049;-68
2022/05/17 16:58:15;;;;;;;5.57;2.67;;;;;;;;;;6223348;28;21856;-68
2022/05/17 17:01:19;;;;;;;7.78;2.30;;;;;;;;;;6220732;28;20129;-68
2022/05/17 17:04:23;;;;;;;5.20;2.58;;;;;;;;;;6219000;28;20080;-67
2022/05/17 17:07:25;;;;;;;7.93;2.10;;;;;;;;;;6221828;28;20053;-68
2022/05/17 17:10:29;;;;;;;5.80;2.45;;;;;;;;;;6218810;28;20049;-68
2022/05/17 17:13:30;;;;;;;7.70;2.50;;;;;;;;;;6219868;28;20064;-66
2022/05/17 17:16:34;;;;;;;4.82;2.28;;;;;;;;;;6223504;28;20050;-67
2022/05/17 17:19:35;;;;;;;5.22;2.30;;;;;;;;;;6224366;28;20053;-68
2022/05/17 17:22:37;;;;;;;4.50;2.20;;;;;;;;;;6225492;28;20057;-66
2022/05/17 17:25:40;;;;;;;4.57;2.60;;;;;;;;;;6218459;28;20214;-67
2022/05/17 17:28:42;;;;;;;6.90;2.22;;;;;;;;;;6218123;28;20054;-66
2022/05/17 17:31:45;;;;;;;5.80;2.40;;;;;;;;;;6222985;28;20100;-66
2022/05/17 17:38:05;;;;;;;5.43;2.03;;;;;;;;;;6221163;28;20280;-65
2022/05/17 17:41:09;;;;;;;4.57;2.10;;;;;;;;;;6224724;28;20276;-65
2022/05/17 17:44:13;;;;;;;6.70;2.10;;;;;;;;;;6221269;28;20312;-66
2022/05/17 17:47:17;;;;;;;6.60;2.88;;;;;;;;;;6224167;28;20129;-68
2022/05/17 17:50:19;;;;;;;4.03;2.20;;;;;;;;;;6227489;28;21033;-67
2022/05/17 17:53:21;;;;;;;3.13;2.50;;;;;;;;;;6223406;28;20348;-69
2022/05/17 17:56:27;;;;;;;8.10;1.90;;;;;;;;;;6227572;28;20112;-65
2022/05/17 17:59:29;;;;;;;7.38;2.40;;;;;;;;;;6222737;28;20121;-65
2022/05/17 18:02:32;;;;;;;6.07;2.15;;;;;;;;;;6219990;28;20053;-65
2022/05/17 18:05:37;;;;;;;5.38;2.30;;;;;;;;;;6219400;28;20057;-66
2022/05/17 18:08:39;;;;;;;3.75;1.90;;;;;;;;;;6223897;28;20057;-67
2022/05/17 18:11:41;;;;;;;5.35;2.17;;;;;;;;;;6222767;28;20217;-66
2022/05/17 18:14:43;;;;;;;6.00;2.42;;;;;;;;;;6219797;28;20050;-66
2022/05/17 18:17:46;;;;;;;11.52;3.80;;;;;;;;;;6222193;28;20060;-67
2022/05/17 18:20:48;;;;;;;4.60;2.58;;;;;;;;;;6221297;28;20120;-67
2022/05/17 18:23:50;;;;;;;5.00;2.45;;;;;;;;;;6225375;28;20049;-68
2022/05/17 18:26:52;;;;;;;7.82;3.30;;;;;;;;;;6229415;28;20243;-68
2022/05/17 18:29:54;;;;;;;4.13;2.33;;;;;;;;;;6230621;28;20050;-66
2022/05/17 18:32:57;;;;;;;7.47;3.20;;;;;;;;;;6226186;28;20046;-68
2022/05/17 18:36:01;;;;;;;8.10;2.80;;;;;;;;;;6223948;28;20042;-69
2022/05/17 18:39:04;;;;;;;4.88;2.53;;;;;;;;;;6222757;28;20292;-68
2022/05/17 18:42:07;;;;;;;7.90;3.20;;;;;;;;;;6228183;28;21240;-67
2022/05/17 18:45:10;;;;;;;5.63;3.00;;;;;;;;;;6223491;28;20046;-68
2022/05/17 18:48:14;;;;;;;;;;;;;;;;;;6225261;28;20054;-68
2022/05/17 18:51:17;;;;;;;8.70;3.15;;;;;;;;;;6225067;28;19949;-68
2022/05/17 18:54:19;;;;;;;7.50;3.47;;;;;;;;;;6230179;28;20272;-67